createdAt,value
2023-04-25T08:27:30.280Z,38.9
2023-04-25T08:33:23.571Z,38.8
2023-04-25T08:39:28.591Z,38.8
2023-04-25T08:45:23.315Z,38.8
2023-04-25T08:51:16.436Z,38.8
2023-04-25T08:57:11.214Z,38.7
2023-04-25T09:03:04.398Z,38.7
2023-04-25T09:09:01.929Z,38.6
2023-04-25T09:14:38.478Z,38.6
2023-04-25T09:20:29.412Z,38.6
2023-04-25T09:26:33.310Z,38.6
2023-04-25T09:32:26.163Z,38.5
2023-04-25T09:38:19.752Z,38.5
2023-04-25T09:44:12.415Z,38.4
2023-04-25T09:50:04.217Z,38.4
2023-04-25T09:55:56.309Z,38.4
2023-04-25T10:01:48.887Z,38.3
2023-04-25T10:07:42.041Z,38.3
2023-04-25T10:13:33.398Z,38.3
2023-04-25T10:19:26.679Z,38.3
2023-04-25T10:25:02.363Z,38.3
2023-04-25T10:30:53.322Z,38.2
2023-04-25T10:36:46.699Z,38.2
2023-04-25T10:42:37.573Z,38.1
2023-04-25T10:48:30.246Z,38.1
2023-04-25T10:54:30.578Z,38.1
2023-04-25T11:00:25.683Z,38.1
2023-04-25T11:06:46.835Z,38
2023-04-25T11:12:53.435Z,38
2023-04-25T11:19:03.275Z,37.9
2023-04-25T11:24:54.944Z,37.9
2023-04-25T11:30:48.514Z,37.9
2023-04-25T11:36:41.444Z,37.9
2023-04-25T11:42:42.147Z,37.8
2023-04-25T11:48:42.248Z,37.8
2023-04-25T11:54:33.582Z,37.8
2023-04-25T12:00:25.242Z,37.8
2023-04-25T12:06:44.545Z,37.8
2023-04-25T12:12:35.580Z,37.7
2023-04-25T12:17:56.867Z,37.7
2023-04-25T12:23:55.001Z,37.6
2023-04-25T12:29:54.414Z,37.6
2023-04-25T12:35:46.964Z,37.6
2023-04-25T12:41:26.934Z,37.6
2023-04-25T12:47:19.075Z,37.5
2023-04-25T12:53:21.340Z,37.5
2023-04-25T12:59:16.232Z,37.4
2023-04-25T13:05:10.265Z,37.4
2023-04-25T13:11:02.653Z,37.4
2023-04-25T13:17:00.714Z,37.4
2023-04-25T13:22:52.277Z,37.3
2023-04-25T13:28:29.117Z,37.3
2023-04-25T13:33:51.373Z,37.3
2023-04-25T13:39:28.206Z,37.3
2023-04-25T13:45:20.793Z,37.2
2023-04-25T13:51:47.373Z,37.2
2023-04-25T13:57:22.843Z,37.1
2023-04-25T14:03:17.171Z,37.1
2023-04-25T14:09:10.122Z,37.1
2023-04-25T14:15:00.589Z,37.1
2023-04-25T14:20:37.372Z,37.1
2023-04-25T14:26:30.059Z,37
2023-04-25T14:32:20.620Z,37
2023-04-25T14:37:57.273Z,36.9
2023-04-25T14:43:34.104Z,36.9
2023-04-25T14:48:40.204Z,36.9
2023-04-25T14:54:00.723Z,36.9
2023-04-25T14:59:22.025Z,36.9
2023-04-25T15:04:44.772Z,36.8
2023-04-25T15:10:25.281Z,36.8
2023-04-25T15:16:06.354Z,36.8
2023-04-25T15:21:42.296Z,36.8
2023-04-25T15:27:18.709Z,36.8
2023-04-25T15:32:56.259Z,36.7
2023-04-25T15:38:48.948Z,36.7
2023-04-25T15:44:41.020Z,36.6
2023-04-25T15:50:36.400Z,36.6
2023-04-25T15:55:58.216Z,36.6
2023-04-25T16:01:36.218Z,36.6
2023-04-25T16:07:31.958Z,36.5
2023-04-25T16:13:07.490Z,36.5
2023-04-25T16:18:44.182Z,36.5
2023-04-25T16:24:22.363Z,36.4
2023-04-25T16:29:57.986Z,36.4
2023-04-25T16:35:21.705Z,36.4
2023-04-25T16:40:58.628Z,36.4
2023-04-25T16:46:35.096Z,36.4
2023-04-25T16:51:56.408Z,36.3
2023-04-25T16:57:33.044Z,36.3
2023-04-25T17:02:56.785Z,36.3
2023-04-25T17:08:49.961Z,36.3
2023-04-25T17:14:36.553Z,36.2
2023-04-25T17:20:13.662Z,36.2
2023-04-25T17:25:19.690Z,36.1
2023-04-25T17:30:40.914Z,36.1
2023-04-25T17:35:30.620Z,36.1
2023-04-25T17:41:06.816Z,36.1
2023-04-25T17:46:29.076Z,36.1
2023-04-25T17:51:34.762Z,36.1
2023-04-25T17:56:58.793Z,36
2023-04-25T18:02:05.815Z,36
2023-04-25T18:07:44.188Z,36
2023-04-25T18:13:05.083Z,35.9
2023-04-25T18:18:41.602Z,35.9
2023-04-25T18:24:34.199Z,35.9
2023-04-25T18:30:02.956Z,35.9
2023-04-25T18:35:25.370Z,35.8
2023-04-25T18:42:24.110Z,35.8
2023-04-25T18:48:04.240Z,35.7
2023-04-25T18:53:26.660Z,35.6
2023-04-25T18:59:19.802Z,35.6
2023-04-25T19:05:00.436Z,35.5
2023-04-25T19:10:38.314Z,35.5
2023-04-25T19:16:25.964Z,35.4
2023-04-25T19:22:19.737Z,35.4
2023-04-25T19:28:17.758Z,35.4
2023-04-25T19:33:55.671Z,35.4
2023-04-25T19:39:34.144Z,35.3
2023-04-25T19:45:13.339Z,35.3
2023-04-25T19:50:36.789Z,35.3
2023-04-25T19:56:14.846Z,35.2
2023-04-25T20:01:53.316Z,35.2
2023-04-25T20:07:32.686Z,35.1
2023-04-25T20:13:11.545Z,35.1
2023-04-25T20:18:49.668Z,35.1
2023-04-25T20:24:26.104Z,35.1
2023-04-25T20:30:04.452Z,35.1
2023-04-25T20:35:59.347Z,35.1
2023-04-25T20:41:51.157Z,35
2023-04-25T20:47:27.129Z,35
2023-04-25T20:53:18.718Z,34.9
2023-04-25T20:59:11.446Z,34.9
2023-04-25T21:04:49.176Z,34.9
2023-04-25T21:10:25.352Z,34.9
2023-04-25T21:16:17.418Z,34.9
2023-04-25T21:22:10.133Z,34.9
2023-04-25T21:27:46.090Z,34.8
2023-04-25T21:33:38.658Z,34.8
2023-04-25T21:39:14.991Z,34.8
2023-04-25T21:44:51.232Z,34.8
2023-04-25T21:50:57.661Z,34.8
2023-04-25T21:56:33.940Z,34.8
2023-04-25T22:02:25.801Z,34.7
2023-04-25T22:08:03.595Z,34.6
2023-04-25T22:13:37.156Z,34.7
2023-04-25T22:18:58.449Z,34.6
2023-04-25T22:24:34.899Z,34.6
2023-04-25T22:30:25.859Z,34.6
2023-04-25T22:36:17.085Z,34.6
2023-04-25T22:42:08.423Z,34.6
2023-04-25T22:48:00.237Z,34.5
